Time;durP1;ratioP1;P1;durP2;ratioP2;P2;SDS_P1;SDS_P2;PMS_P1;PMS_P2;Temp;Humidity;BMP_temperature;BMP_pressure;BME280_temperature;BME280_humidity;BME280_pressure;Samples;Min_cycle;Max_cycle;Signal;HPM_P1;HPM_P2
2021/11/26 00:02:21;;;;;;;51.30;27.10;;;;;;;2.62;71.50;99227.62;1713048;83;25676;-77
2021/11/26 00:04:49;;;;;;;52.88;27.73;;;;;;;2.60;71.92;99230.57;1717910;82;27216;-75
2021/11/26 00:07:19;;;;;;;55.52;28.45;;;;;;;2.62;71.89;99230.30;1736611;82;25490;-75
2021/11/26 00:09:47;;;;;;;54.15;29.23;;;;;;;2.60;71.94;99236.45;1689979;83;25661;-75
2021/11/26 00:12:15;;;;;;;54.98;27.52;;;;;;;2.63;72.03;99222.55;1744463;82;26571;-74
2021/11/26 00:14:53;;;;;;;56.48;28.70;;;;;;;2.63;71.80;99225.77;1745067;81;25417;-75
2021/11/26 00:17:20;;;;;;;52.05;27.48;;;;;;;2.61;71.73;99214.82;1749948;80;27355;-75
2021/11/26 00:19:48;;;;;;;57.53;30.00;;;;;;;2.62;71.87;99202.26;1759877;80;25744;-76
2021/11/26 00:22:16;;;;;;;55.12;28.70;;;;;;;2.63;72.10;99209.75;1744033;82;25681;-76
2021/11/26 00:24:43;;;;;;;53.65;28.57;;;;;;;2.64;72.02;99212.66;1712960;83;26084;-76
2021/11/26 00:27:10;;;;;;;61.25;28.90;;;;;;;2.65;72.12;99206.25;1781827;80;25565;-75
2021/11/26 00:29:36;;;;;;;57.90;29.25;;;;;;;2.65;71.92;99213.72;1781590;80;27420;-76
2021/11/26 00:32:09;;;;;;;53.50;28.62;;;;;;;2.64;71.97;99205.47;1716180;82;25734;-76
2021/11/26 00:34:35;;;;;;;51.10;27.10;;;;;;;2.65;71.84;99204.92;1759478;80;25673;-75
2021/11/26 00:37:02;;;;;;;47.43;26.45;;;;;;;2.65;72.09;99203.58;1781336;80;26005;-76
2021/11/26 00:39:29;;;;;;;51.85;26.75;;;;;;;2.65;72.10;99200.36;1781755;80;25678;-75
2021/11/26 00:41:56;;;;;;;57.98;27.90;;;;;;;2.65;71.82;99203.58;1781834;80;27973;-74
2021/11/26 00:44:22;;;;;;;52.85;28.92;;;;;;;2.64;71.87;99199.30;1751146;80;25683;-75
2021/11/26 00:46:49;;;;;;;53.10;27.15;;;;;;;2.63;72.00;99207.86;1747527;82;25667;-75
2021/11/26 00:49:16;;;;;;;51.25;27.07;;;;;;;2.64;72.12;99205.47;1737113;82;25975;-75
2021/11/26 00:51:42;;;;;;;55.92;27.20;;;;;;;2.66;72.09;99203.84;1747183;82;26410;-75
2021/11/26 00:54:11;;;;;;;49.48;26.62;;;;;;;2.68;72.11;99205.69;1737092;82;27413;-75
2021/11/26 00:56:38;;;;;;;55.58;27.87;;;;;;;2.68;72.04;99205.69;1741446;82;25745;-75
2021/11/26 00:59:04;;;;;;;55.60;28.75;;;;;;;2.67;71.59;99206.76;1738724;82;25766;-75
2021/11/26 01:01:31;;;;;;;52.25;26.87;;;;;;;2.67;71.91;99205.42;1739303;82;26055;-75
2021/11/26 01:03:58;;;;;;;48.60;26.50;;;;;;;2.67;71.91;99196.08;1717188;82;25671;-75
2021/11/26 01:06:24;;;;;;;52.65;26.62;;;;;;;2.68;71.99;99197.13;1739002;82;27331;-75
2021/11/26 01:08:51;;;;;;;54.40;27.42;;;;;;;2.68;71.92;99195.80;1739189;82;25678;-75
2021/11/26 01:11:18;;;;;;;54.70;28.05;;;;;;;2.69;71.91;99189.91;1738989;82;25380;-75
2021/11/26 01:13:44;;;;;;;57.03;28.85;;;;;;;2.68;71.75;99177.66;1739895;81;25965;-75
2021/11/26 01:16:10;;;;;;;52.78;27.52;;;;;;;2.68;71.85;99181.11;1739410;82;25686;-75
2021/11/26 01:18:37;;;;;;;50.33;26.95;;;;;;;2.69;71.93;99190.73;1739266;82;27369;-75
2021/11/26 01:21:06;;;;;;;49.03;25.90;;;;;;;2.69;71.63;99188.58;1739375;82;25390;-75
2021/11/26 01:23:33;;;;;;;50.05;26.48;;;;;;;2.68;71.85;99185.12;1718005;82;25720;-75
2021/11/26 01:26:00;;;;;;;54.93;28.35;;;;;;;2.69;71.92;99184.57;1717037;82;25817;-75
2021/11/26 01:28:26;;;;;;;55.55;28.40;;;;;;;2.70;71.98;99182.17;1739285;82;25454;-75
2021/11/26 01:30:53;;;;;;;53.55;27.22;;;;;;;2.70;72.07;99178.16;1739269;82;26911;-75
2021/11/26 01:33:21;;;;;;;50.20;27.62;;;;;;;2.71;72.11;99173.88;1739209;81;25706;-75
2021/11/26 01:35:52;;;;;;;51.28;26.30;;;;;;;2.72;72.20;99177.33;1739066;81;25555;-73
2021/11/26 01:38:20;;;;;;;57.10;27.82;;;;;;;2.72;72.05;99171.45;1739270;82;26096;-73
2021/11/26 01:40:49;;;;;;;53.15;27.42;;;;;;;2.71;72.08;99167.75;1739461;82;25684;-75
2021/11/26 01:43:20;;;;;;;55.63;27.73;;;;;;;2.71;72.01;99167.20;1739305;82;27339;-75
2021/11/26 01:45:53;;;;;;;53.20;27.95;;;;;;;2.69;72.19;99152.01;1732344;81;25479;-75
2021/11/26 01:48:23;;;;;;;52.70;28.52;;;;;;;2.70;72.21;99154.13;1743478;82;25390;-75
2021/11/26 01:50:54;;;;;;;54.58;28.60;;;;;;;2.67;72.31;99159.48;1709121;83;26668;-75
2021/11/26 01:53:21;;;;;;;53.50;28.75;;;;;;;2.67;72.14;99156.81;1744275;82;25637;-75
2021/11/26 01:55:48;;;;;;;51.83;28.10;;;;;;;2.66;72.40;99161.92;1764023;80;28191;-75
2021/11/26 01:58:15;;;;;;;54.00;29.25;;;;;;;2.66;72.43;99155.24;1753924;80;25826;-75
2021/11/26 02:00:45;;;;;;;54.50;28.50;;;;;;;2.67;72.48;99146.69;1781950;80;25573;-75
2021/11/26 02:03:12;;;;;;;52.05;28.02;;;;;;;2.67;72.51;99159.48;1781870;80;26762;-75
2021/11/26 02:05:39;;;;;;;58.95;28.57;;;;;;;2.68;72.54;99171.77;1781798;80;25643;-76
2021/11/26 02:08:08;;;;;;;54.53;28.32;;;;;;;2.69;72.60;99164.55;1781764;80;27317;-75
2021/11/26 02:10:35;;;;;;;54.55;28.30;;;;;;;2.70;72.63;99161.59;1782012;80;25487;-74
2021/11/26 02:13:01;;;;;;;51.15;27.22;;;;;;;2.70;72.75;99152.80;1781679;80;25718;-74
2021/11/26 02:15:29;;;;;;;51.98;28.02;;;;;;;2.70;72.79;99144.78;1781812;80;25927;-77
2021/11/26 02:17:59;;;;;;;52.73;28.73;;;;;;;2.71;72.79;99147.72;1781917;80;25570;-76
2021/11/26 02:20:29;;;;;;;58.42;29.98;;;;;;;2.71;72.87;99139.71;1781858;80;27346;-76
2021/11/26 02:22:57;;;;;;;57.70;29.75;;;;;;;2.71;72.87;99139.71;1781699;80;25612;-73
2021/11/26 02:25:26;;;;;;;54.20;29.02;;;;;;;2.70;72.73;99135.44;1781884;80;25481;-75
2021/11/26 02:27:57;;;;;;;54.88;28.65;;;;;;;2.70;72.75;99130.09;1781708;80;26055;-75
2021/11/26 02:30:24;;;;;;;58.40;30.05;;;;;;;2.69;72.72;99131.16;1781888;80;25741;-74
2021/11/26 02:32:57;;;;;;;52.17;28.52;;;;;;;2.68;72.80;99129.05;1781877;80;27338;-74
2021/11/26 02:35:27;;;;;;;52.05;29.12;;;;;;;2.66;72.78;99103.17;1781670;80;25596;-74
2021/11/26 02:37:54;;;;;;;54.67;28.60;;;;;;;2.66;72.84;99099.17;1782003;80;25438;-74
2021/11/26 02:40:24;;;;;;;57.27;29.72;;;;;;;2.65;72.82;99102.13;1781829;80;25923;-74
2021/11/26 02:42:51;;;;;;;;;;;;;;;2.64;72.90;99105.34;1784347;80;25691;-74
2021/11/26 02:45:19;;;;;;;55.03;28.47;;;;;;;2.62;72.93;99108.81;1726222;81;26965;-74
2021/11/26 02:47:47;;;;;;;59.63;30.72;;;;;;;2.62;73.05;99114.16;1739437;82;25798;-74
2021/11/26 02:50:17;;;;;;;57.55;29.52;;;;;;;2.62;73.09;99108.81;1739046;82;25628;-75
2021/11/26 02:52:46;;;;;;;56.28;29.23;;;;;;;2.61;73.03;99101.35;1739389;82;25934;-75
2021/11/26 02:55:17;;;;;;;55.80;28.73;;;;;;;2.61;73.01;99084.55;1739409;82;25654;-75
2021/11/26 02:57:44;;;;;;;58.68;30.05;;;;;;;2.61;73.18;99092.00;1739183;82;27354;-75
2021/11/26 03:00:15;;;;;;;54.35;28.23;;;;;;;2.61;73.26;99105.36;1743524;82;25687;-75
2021/11/26 03:02:42;;;;;;;53.08;28.52;;;;;;;2.61;73.26;99085.33;1739674;81;25474;-75
2021/11/26 03:05:10;;;;;;;58.75;30.37;;;;;;;2.62;73.32;99083.45;1738829;82;25985;-75
2021/11/26 03:07:37;;;;;;;62.95;32.85;;;;;;;2.61;73.38;99089.34;1739563;82;25758;-75
2021/11/26 03:10:07;;;;;;;57.88;30.00;;;;;;;2.62;73.46;99103.47;1739179;82;27415;-75
2021/11/26 03:12:34;;;;;;;57.78;28.17;;;;;;;2.63;73.53;99105.62;1736598;82;25584;-75
2021/11/26 03:15:01;;;;;;;59.50;30.50;;;;;;;2.63;73.50;99115.75;1717079;82;25686;-75
2021/11/26 03:17:28;;;;;;;56.28;31.10;;;;;;;2.63;73.55;99110.41;1717279;82;25918;-75
2021/11/26 03:19:54;;;;;;;60.73;30.27;;;;;;;2.63;73.58;99092.27;1739034;81;25424;-75
2021/11/26 03:22:21;;;;;;;53.15;29.37;;;;;;;2.64;73.64;99093.84;1739052;82;27321;-75
2021/11/26 03:24:48;;;;;;;55.98;30.57;;;;;;;2.64;73.71;99101.86;1739085;82;25680;-75
2021/11/26 03:27:14;;;;;;;57.55;29.67;;;;;;;2.63;73.69;99102.95;1739106;82;25674;-75
2021/11/26 03:29:41;;;;;;;56.80;29.32;;;;;;;2.60;73.72;99098.41;1739702;82;26020;-75
2021/11/26 03:32:07;;;;;;;56.83;28.35;;;;;;;2.59;73.84;99095.51;1735848;82;25615;-74
2021/11/26 03:34:34;;;;;;;53.42;29.45;;;;;;;2.60;73.93;99089.62;1739434;82;27384;-75
2021/11/26 03:37:00;;;;;;;57.38;29.35;;;;;;;2.60;74.07;99101.09;1739252;81;25697;-75
2021/11/26 03:39:27;;;;;;;56.37;29.77;;;;;;;2.60;74.04;99102.42;1739640;82;25536;-75
2021/11/26 03:41:53;;;;;;;59.15;29.92;;;;;;;2.59;73.99;99090.17;1739008;81;26593;-75
2021/11/26 03:44:20;;;;;;;53.98;29.30;;;;;;;2.59;74.03;99086.16;1745192;80;25422;-75
2021/11/26 03:46:47;;;;;;;56.68;30.35;;;;;;;2.59;74.04;99084.83;1781767;80;27367;-75
2021/11/26 03:49:13;;;;;;;58.60;29.30;;;;;;;2.63;74.13;99081.59;1781517;80;25544;-75
2021/11/26 03:51:40;;;;;;;54.80;29.72;;;;;;;2.61;74.18;99077.33;1781808;80;25655;-75
2021/11/26 03:54:06;;;;;;;58.35;30.17;;;;;;;2.61;74.22;99084.55;1781724;80;26505;-75
2021/11/26 03:56:33;;;;;;;55.45;28.60;;;;;;;2.63;74.20;99086.94;1781737;80;25666;-75
2021/11/26 03:58:59;;;;;;;54.40;29.07;;;;;;;2.63;74.21;99082.93;1781739;80;27324;-74
2021/11/26 04:01:26;;;;;;;52.67;27.95;;;;;;;2.63;74.29;99077.59;1752657;80;25677;-74
2021/11/26 04:03:52;;;;;;;64.07;31.62;;;;;;;2.64;74.41;99072.48;1781631;80;25634;-74
2021/11/26 04:06:19;;;;;;;58.45;31.37;;;;;;;2.63;74.50;99080.26;1759919;80;26632;-75
2021/11/26 04:08:45;;;;;;;60.12;30.60;;;;;;;2.63;74.41;99081.05;1781829;80;25551;-75
2021/11/26 04:11:12;;;;;;;57.23;30.08;;;;;;;2.61;74.38;99073.87;1781575;80;27331;-75
2021/11/26 04:13:38;;;;;;;54.55;30.20;;;;;;;2.60;74.51;99081.06;1781735;80;25755;-75
2021/11/26 04:16:12;;;;;;;67.85;31.73;;;;;;;2.59;74.55;99084.05;1781728;80;25396;-75
2021/11/26 04:18:34;;;;;;;61.73;32.08;;;;;;;2.59;74.65;99078.70;1780765;80;25973;-73
2021/11/26 04:21:03;;;;;;;56.35;29.52;;;;;;;2.57;74.71;99082.17;1781744;80;25558;-73
2021/11/26 04:23:31;;;;;;;64.93;32.70;;;;;;;2.55;74.67;99081.67;1734850;82;27326;-73
2021/11/26 04:25:57;;;;;;;58.10;30.32;;;;;;;2.54;74.70;99084.11;1734408;82;25640;-74
2021/11/26 04:28:25;;;;;;;59.77;31.68;;;;;;;2.52;74.81;99089.72;1734708;82;25899;-75
2021/11/26 04:30:52;;;;;;;58.50;29.37;;;;;;;2.50;74.93;99087.85;1734635;82;26144;-75
2021/11/26 04:33:19;;;;;;;56.35;29.67;;;;;;;2.50;75.06;99091.08;1734481;82;25782;-74
2021/11/26 04:35:48;;;;;;;61.15;31.05;;;;;;;2.50;74.97;99090.52;1734559;82;27485;-74
2021/11/26 04:38:16;;;;;;;60.23;30.45;;;;;;;2.51;75.06;99080.66;1734771;82;25757;-75
2021/11/26 04:40:43;;;;;;;58.25;31.10;;;;;;;2.51;75.08;99084.67;1734481;82;25665;-75
2021/11/26 04:43:09;;;;;;;57.67;29.32;;;;;;;2.51;75.10;99076.11;1734714;82;26519;-76
2021/11/26 04:45:36;;;;;;;53.87;28.00;;;;;;;2.51;75.13;99066.77;1744221;81;25661;-75
2021/11/26 04:48:02;;;;;;;56.50;31.10;;;;;;;2.51;75.13;99074.77;1734737;82;27384;-75
2021/11/26 04:50:30;;;;;;;57.90;30.48;;;;;;;2.51;75.14;99056.64;1734698;82;25754;-76
2021/11/26 04:52:56;;;;;;;57.40;30.70;;;;;;;2.53;75.17;99063.81;1734811;82;25552;-76
2021/11/26 04:55:24;;;;;;;55.60;29.35;;;;;;;2.54;75.05;99061.41;1774382;80;26311;-76
2021/11/26 04:57:50;;;;;;;56.88;29.07;;;;;;;2.53;75.15;99053.92;1752859;80;25630;-76
2021/11/26 05:00:20;;;;;;;60.12;31.50;;;;;;;2.54;75.25;99062.20;1781947;80;27342;-76
2021/11/26 05:02:47;;;;;;;50.92;27.25;;;;;;;2.53;75.24;99063.27;1781762;80;26202;-75
2021/11/26 05:05:13;;;;;;;57.62;29.60;;;;;;;2.54;75.33;99058.19;1782001;80;25637;-75
2021/11/26 05:07:40;;;;;;;56.65;29.95;;;;;;;2.55;75.33;99054.42;1781781;80;25831;-75
2021/11/26 05:10:10;;;;;;;51.70;28.70;;;;;;;2.56;75.29;99053.91;1781837;80;25611;-75
2021/11/26 05:12:40;;;;;;;54.85;28.62;;;;;;;2.55;75.31;99045.63;1781811;80;28022;-75
2021/11/26 05:15:09;;;;;;;53.65;28.07;;;;;;;2.55;75.25;99047.75;1781643;78;25731;-75
2021/11/26 05:17:36;;;;;;;59.95;28.77;;;;;;;2.56;75.37;99043.23;1781812;80;25595;-75
2021/11/26 05:20:05;;;;;;;56.42;28.77;;;;;;;2.54;75.33;99048.85;1782017;80;25966;-75
2021/11/26 05:22:33;;;;;;;56.88;29.25;;;;;;;2.55;75.35;99056.31;1744153;82;28776;-75
2021/11/26 05:25:00;;;;;;;53.55;28.73;;;;;;;2.55;75.43;99056.31;1744175;82;27332;-75
2021/11/26 05:27:26;;;;;;;57.48;28.42;;;;;;;2.54;75.56;99056.07;1713008;83;25602;-74
2021/11/26 05:29:53;;;;;;;54.77;28.50;;;;;;;2.52;75.55;99051.02;1781239;80;25679;-74
2021/11/26 05:32:19;;;;;;;55.88;28.00;;;;;;;2.53;75.66;99050.47;1781765;80;25979;-74
2021/11/26 05:34:46;;;;;;;59.42;30.27;;;;;;;2.54;75.66;99050.73;1781960;80;25629;-74
2021/11/26 05:37:13;;;;;;;61.00;31.65;;;;;;;2.52;75.77;99047.02;1782047;80;27408;-74
2021/11/26 05:39:39;;;;;;;59.80;30.85;;;;;;;2.53;75.73;99045.12;1781820;80;25994;-74
2021/11/26 05:42:06;;;;;;;57.05;29.67;;;;;;;2.52;75.76;99039.01;1779275;80;25677;-74
2021/11/26 05:44:32;;;;;;;55.90;29.48;;;;;;;2.53;75.88;99051.80;1779973;80;25922;-76
2021/11/26 05:46:59;;;;;;;57.95;29.77;;;;;;;2.51;75.93;99044.62;1749563;82;25310;-75
2021/11/26 05:49:26;;;;;;;58.28;29.37;;;;;;;2.52;75.99;99044.34;1739249;82;27320;-75
2021/11/26 05:51:52;;;;;;;56.02;29.20;;;;;;;2.53;76.05;99043.25;1749731;78;25620;-74
2021/11/26 05:54:19;;;;;;;55.90;29.00;;;;;;;2.54;76.00;99044.06;1739666;82;25243;-75
2021/11/26 05:56:46;;;;;;;61.37;30.90;;;;;;;2.56;76.05;99053.91;1740768;82;26050;-75
2021/11/26 05:59:13;;;;;;;66.28;32.33;;;;;;;2.55;76.08;99053.09;1739444;82;25483;-75
2021/11/26 06:01:39;;;;;;;58.68;30.40;;;;;;;2.55;76.15;99057.09;1739082;82;27514;-76
2021/11/26 06:04:06;;;;;;;60.78;29.72;;;;;;;2.55;76.20;99058.43;1739170;82;25775;-75
2021/11/26 06:06:32;;;;;;;57.83;30.10;;;;;;;2.54;76.24;99060.86;1739336;82;25620;-75
2021/11/26 06:08:59;;;;;;;59.38;30.15;;;;;;;2.54;76.28;99060.08;1739037;82;25933;-75
2021/11/26 06:11:25;;;;;;;56.30;30.00;;;;;;;2.54;76.33;99062.75;1735746;82;25703;-75
2021/11/26 06:13:52;;;;;;;56.13;31.15;;;;;;;2.54;76.36;99063.53;1739510;82;27382;-75
2021/11/26 06:16:19;;;;;;;61.63;31.07;;;;;;;2.55;76.48;99065.10;1739075;82;25790;-75
2021/11/26 06:18:45;;;;;;;56.70;30.70;;;;;;;2.56;76.50;99064.03;1739128;82;25657;-74
2021/11/26 06:21:12;;;;;;;64.37;31.80;;;;;;;2.56;76.41;99060.03;1739536;82;26224;-75
2021/11/26 06:23:38;;;;;;;64.45;32.98;;;;;;;2.56;76.51;99053.36;1738721;82;25644;-74
2021/11/26 06:26:05;;;;;;;73.15;33.92;;;;;;;2.58;76.45;99057.08;1739120;82;26818;-74
2021/11/26 06:28:31;;;;;;;67.03;33.35;;;;;;;2.58;76.59;99052.52;1739092;82;25505;-74
2021/11/26 06:30:58;;;;;;;74.45;35.28;;;;;;;2.59;76.59;99058.13;1738700;82;25546;-74
2021/11/26 06:33:25;;;;;;;61.90;32.05;;;;;;;2.61;76.65;99053.84;1739171;82;26518;-75
2021/11/26 06:35:51;;;;;;;65.87;33.05;;;;;;;2.62;76.73;99056.75;1738728;82;25420;-75
2021/11/26 06:38:18;;;;;;;66.20;34.88;;;;;;;2.63;76.67;99056.23;1739169;82;27354;-75
2021/11/26 06:40:45;;;;;;;68.40;35.25;;;;;;;2.64;76.68;99052.46;1739090;82;25662;-76
2021/11/26 06:43:12;;;;;;;66.17;33.15;;;;;;;2.64;76.59;99056.47;1739144;82;25511;-75
2021/11/26 06:45:38;;;;;;;60.50;31.75;;;;;;;2.66;76.62;99057.78;1720359;81;25867;-74
2021/11/26 06:48:05;;;;;;;66.33;32.33;;;;;;;2.64;76.54;99064.48;1745402;81;25615;-75
2021/11/26 06:50:32;;;;;;;67.03;31.87;;;;;;;2.63;76.60;99067.70;1744155;82;27283;-74
2021/11/26 06:52:59;;;;;;;60.92;30.90;;;;;;;2.63;76.65;99067.70;1744196;82;25722;-74
2021/11/26 06:55:25;;;;;;;61.42;31.30;;;;;;;2.63;76.74;99061.02;1744118;82;25663;-75
2021/11/26 06:57:52;;;;;;;61.73;31.97;;;;;;;2.66;76.83;99058.33;1744130;82;25932;-75
2021/11/26 07:00:19;;;;;;;63.05;32.28;;;;;;;2.67;76.85;99052.68;1721202;82;25884;-75
2021/11/26 07:02:46;;;;;;;62.10;31.95;;;;;;;2.68;76.79;99050.83;1737277;82;27956;-75
2021/11/26 07:05:14;;;;;;;62.67;30.02;;;;;;;2.68;76.60;99052.16;1744554;82;25707;-74
2021/11/26 07:07:40;;;;;;;61.40;32.95;;;;;;;2.68;76.57;99056.16;1739138;82;25680;-75
2021/11/26 07:10:10;;;;;;;61.35;32.25;;;;;;;2.68;76.61;99052.16;1718112;82;25985;-74
2021/11/26 07:12:39;;;;;;;63.23;32.05;;;;;;;2.69;76.70;99058.55;1739300;82;25611;-75
2021/11/26 07:15:09;;;;;;;63.83;31.73;;;;;;;2.69;76.67;99063.08;1739465;82;27328;-75
2021/11/26 07:17:36;;;;;;;62.25;30.23;;;;;;;2.71;76.73;99057.72;1683460;83;25612;-75
2021/11/26 07:20:09;;;;;;;64.87;31.70;;;;;;;2.73;76.79;99059.55;1683853;85;25747;-75
2021/11/26 07:22:36;;;;;;;62.78;32.33;;;;;;;2.76;76.84;99060.33;1679856;84;26817;-75
2021/11/26 07:25:05;;;;;;;61.98;31.65;;;;;;;2.77;76.68;99063.78;1683762;85;25642;-75
2021/11/26 07:27:32;;;;;;;63.63;32.30;;;;;;;2.78;76.63;99068.05;1654664;86;33481;-75
2021/11/26 07:29:58;;;;;;;59.33;32.25;;;;;;;2.79;76.64;99069.63;1653349;86;25508;-75
2021/11/26 07:32:25;;;;;;;64.40;31.87;;;;;;;2.79;76.61;99068.29;1656761;86;25508;-76
2021/11/26 07:34:51;;;;;;;58.58;31.02;;;;;;;2.79;76.62;99060.28;1654152;86;26046;-75
2021/11/26 07:37:18;;;;;;;58.38;31.60;;;;;;;2.79;76.61;99066.95;1653029;86;25466;-75
2021/11/26 07:39:46;;;;;;;55.40;30.72;;;;;;;2.78;76.68;99063.50;1653002;86;28162;-75
2021/11/26 07:42:13;;;;;;;65.00;32.10;;;;;;;2.80;76.75;99055.98;1653258;86;25741;-75
2021/11/26 07:44:42;;;;;;;61.58;30.30;;;;;;;2.82;76.77;99055.70;1653085;86;25716;-75
2021/11/26 07:47:16;;;;;;;65.53;32.17;;;;;;;2.84;76.86;99050.86;1621884;86;26061;-74
2021/11/26 07:49:41;;;;;;;58.98;31.60;;;;;;;2.86;76.87;99044.72;1642847;86;25480;-74
2021/11/26 07:52:10;;;;;;;60.52;31.50;;;;;;;2.89;76.86;99049.45;1654156;86;27903;-73
2021/11/26 07:54:37;;;;;;;58.48;30.97;;;;;;;2.92;76.78;99048.88;1667628;85;25604;-74
2021/11/26 07:57:04;;;;;;;55.03;29.10;;;;;;;2.93;76.78;99052.38;1667699;86;25798;-75
2021/11/26 07:59:30;;;;;;;59.83;31.15;;;;;;;2.97;76.84;99045.36;1703573;83;26094;-75
2021/11/26 08:01:57;;;;;;;60.15;30.17;;;;;;;3.00;76.67;99039.44;1701966;83;25672;-75
2021/11/26 08:04:24;;;;;;;61.53;30.62;;;;;;;2.99;76.62;99036.51;1703627;84;27927;-75
2021/11/26 08:06:50;;;;;;;58.50;31.62;;;;;;;3.00;76.69;99043.45;1703435;84;25644;-75
2021/11/26 08:09:18;;;;;;;64.80;32.70;;;;;;;3.01;76.70;99041.56;1703390;84;25683;-75
2021/11/26 08:11:46;;;;;;;56.68;30.88;;;;;;;3.02;76.71;99037.27;1703550;84;25763;-74
2021/11/26 08:14:13;;;;;;;61.53;31.30;;;;;;;3.05;76.84;99036.70;1703670;84;25662;-75
2021/11/26 08:16:40;;;;;;;58.78;30.80;;;;;;;3.08;76.72;99040.13;1703417;84;27327;-74
2021/11/26 08:19:09;;;;;;;66.25;33.92;;;;;;;3.09;76.67;99037.70;1683372;84;25447;-74
2021/11/26 08:21:37;;;;;;;61.50;31.20;;;;;;;3.08;76.63;99040.13;1703625;84;25593;-74
2021/11/26 08:24:06;;;;;;;61.33;30.05;;;;;;;3.10;76.51;99040.63;1684978;83;26246;-73
2021/11/26 08:26:34;;;;;;;66.40;32.55;;;;;;;3.10;76.49;99049.16;1704406;83;25431;-73
2021/11/26 08:29:03;;;;;;;59.65;32.33;;;;;;;3.08;76.53;99050.00;1703507;83;27327;-76
2021/11/26 08:31:31;;;;;;;57.23;31.07;;;;;;;3.08;76.46;99051.34;1703249;84;25568;-75
2021/11/26 08:33:59;;;;;;;66.70;32.63;;;;;;;3.08;76.49;99037.98;1769472;81;25686;-75
2021/11/26 08:36:26;;;;;;;64.20;32.17;;;;;;;3.09;76.50;99044.38;1771559;81;26655;-74
2021/11/26 08:38:55;;;;;;;69.62;30.97;;;;;;;3.07;76.66;99036.41;1771526;81;25402;-74
2021/11/26 08:41:22;;;;;;;67.17;32.67;;;;;;;3.11;76.70;99042.20;1771813;81;33286;-74
2021/11/26 08:43:49;;;;;;;65.28;32.88;;;;;;;3.12;76.57;99039.80;1771455;81;25683;-74
2021/11/26 08:46:16;;;;;;;60.40;30.97;;;;;;;3.13;76.53;99045.92;1762353;80;25476;-75
2021/11/26 08:48:43;;;;;;;64.05;33.38;;;;;;;3.16;76.67;99044.02;1736730;82;25906;-75
2021/11/26 08:51:12;;;;;;;58.73;30.20;;;;;;;3.22;76.78;99044.20;1736944;82;25399;-75
2021/11/26 08:53:45;;;;;;;64.93;31.93;;;;;;;3.29;76.90;99042.50;1739896;82;27886;-75
2021/11/26 08:56:08;;;;;;;62.60;32.48;;;;;;;3.32;76.54;99037.88;1736422;82;25751;-75
2021/11/26 08:58:36;;;;;;;61.77;31.37;;;;;;;3.35;76.44;99042.13;1736968;82;25546;-74
2021/11/26 09:01:05;;;;;;;64.05;31.90;;;;;;;3.39;76.42;99038.33;1736569;82;25930;-75
2021/11/26 09:03:34;;;;;;;65.20;31.37;;;;;;;3.44;76.64;99028.08;1736770;82;25688;-76
2021/11/26 09:06:02;;;;;;;61.00;31.62;;;;;;;3.50;76.48;99028.26;1741082;82;27341;-75
2021/11/26 09:08:30;;;;;;;59.63;31.02;;;;;;;3.58;76.69;99026.81;1743993;82;25612;-75
2021/11/26 09:10:57;;;;;;;58.58;30.82;;;;;;;3.70;76.48;99018.55;1712963;83;25687;-75
2021/11/26 09:13:24;;;;;;;57.40;32.13;;;;;;;3.72;76.08;99016.92;1744169;82;26493;-75
2021/11/26 09:15:51;;;;;;;61.18;30.72;;;;;;;3.80;76.12;99020.27;1712821;83;25503;-75
2021/11/26 09:18:17;;;;;;;61.90;30.12;;;;;;;3.87;75.93;99028.69;1744251;82;27391;-76
2021/11/26 09:20:49;;;;;;;57.25;30.72;;;;;;;3.91;75.93;99031.02;1712913;83;25431;-76
2021/11/26 09:23:14;;;;;;;63.87;32.17;;;;;;;4.00;76.04;99031.67;1743774;82;25680;-75
2021/11/26 09:25:40;;;;;;;61.08;31.60;;;;;;;4.11;75.87;99029.84;1712857;83;25900;-75
2021/11/26 09:28:07;;;;;;;62.00;31.75;;;;;;;4.14;75.26;99029.81;1744302;82;25616;-75
2021/11/26 09:30:34;;;;;;;55.60;29.77;;;;;;;4.17;75.23;99012.35;1712767;83;27338;-74
2021/11/26 09:33:00;;;;;;;57.80;30.85;;;;;;;4.23;75.11;99005.83;1744243;82;25633;-75
2021/11/26 09:35:30;;;;;;;61.25;31.42;;;;;;;4.26;75.07;98998.55;1713155;83;25671;-74
2021/11/26 09:37:59;;;;;;;58.13;32.65;;;;;;;4.32;74.89;98989.85;1744309;82;25984;-75
2021/11/26 09:40:27;;;;;;;57.10;30.12;;;;;;;4.41;75.08;98987.52;1713349;83;25679;-75
2021/11/26 09:42:54;;;;;;;55.80;28.85;;;;;;;4.45;74.60;98985.03;1744364;82;27342;-74
2021/11/26 09:45:22;;;;;;;57.20;28.85;;;;;;;4.49;74.48;98985.48;1744141;82;25702;-74
2021/11/26 09:47:51;;;;;;;60.40;28.93;;;;;;;4.51;74.27;98975.78;1744566;81;25717;-74
2021/11/26 09:50:19;;;;;;;55.03;29.10;;;;;;;4.54;74.02;98979.76;1713061;83;26661;-74
2021/11/26 09:52:46;;;;;;;51.23;27.58;;;;;;;4.50;73.74;98970.20;1744254;82;25288;-74
2021/11/26 09:55:17;;;;;;;54.08;28.50;;;;;;;4.48;73.77;98963.02;1713200;83;27366;-74
2021/11/26 09:57:45;;;;;;;54.20;28.57;;;;;;;4.51;73.96;98971.77;1744238;82;25415;-74
2021/11/26 10:00:16;;;;;;;52.70;29.05;;;;;;;4.49;73.57;98973.44;1744257;82;25393;-73
2021/11/26 10:02:55;;;;;;;55.08;29.02;;;;;;;4.46;73.57;98960.64;1744269;82;26864;-75
2021/11/26 10:05:23;;;;;;;54.33;28.25;;;;;;;4.46;73.45;98959.30;1713202;82;25576;-76
2021/11/26 10:07:53;;;;;;;53.33;28.07;;;;;;;4.46;73.58;98953.95;1744192;82;27335;-74
2021/11/26 10:10:28;;;;;;;51.45;27.42;;;;;;;4.43;73.57;98947.84;1712938;83;25422;-74
2021/11/26 10:13:06;;;;;;;53.02;28.90;;;;;;;4.44;73.69;98938.73;1743498;82;25452;-75
2021/11/26 10:15:46;;;;;;;56.53;28.07;;;;;;;4.46;73.40;98937.06;1743913;82;25933;-75
2021/11/26 10:18:23;;;;;;;52.13;28.50;;;;;;;4.43;73.36;98937.69;1744266;82;25455;-75
2021/11/26 10:21:13;;;;;;;52.65;28.52;;;;;;;4.41;73.31;98931.82;1712945;83;28013;-74
2021/11/26 10:23:47;;;;;;;54.65;28.73;;;;;;;4.42;73.24;98934.75;1754640;80;25466;-75
2021/11/26 10:26:24;;;;;;;51.33;27.65;;;;;;;4.40;73.53;98928.36;1744686;81;25686;-75
2021/11/26 10:29:02;;;;;;;56.35;28.05;;;;;;;4.42;73.73;98926.72;1770549;80;25933;-75
2021/11/26 10:31:32;;;;;;;54.93;27.73;;;;;;;4.43;73.48;98935.80;1781673;80;25717;-76
2021/11/26 10:34:06;;;;;;;56.10;30.43;;;;;;;4.39;73.27;98931.34;1781849;80;27334;-72
2021/11/26 10:36:51;;;;;;;52.88;28.65;;;;;;;4.38;73.46;98921.19;1743881;82;25775;-72
2021/11/26 10:39:21;;;;;;;57.48;28.60;;;;;;;4.38;73.44;98923.86;1781850;80;25613;-72
2021/11/26 10:41:55;;;;;;;49.35;28.25;;;;;;;4.35;73.37;98917.77;1781897;80;25932;-72
2021/11/26 10:47:14;;;;;;;52.53;30.55;;;;;;;4.32;73.24;98909.55;1762048;80;27383;-72
2021/11/26 11:00:16;;;;;;;58.52;30.25;;;;;;;4.29;73.25;98902.89;1738819;82;27920;-73
2021/11/26 11:02:50;;;;;;;55.88;28.52;;;;;;;4.28;73.29;98894.63;1739449;81;25710;-73
2021/11/26 11:05:35;;;;;;;55.28;29.87;;;;;;;4.31;73.46;98902.06;1739266;81;25696;-73
2021/11/26 11:08:05;;;;;;;54.88;29.92;;;;;;;4.35;73.52;98899.02;1732450;81;26007;-72
2021/11/26 11:10:39;;;;;;;55.78;29.25;;;;;;;4.38;73.65;98891.73;1682753;84;25749;-73
2021/11/26 11:13:12;;;;;;;54.40;29.60;;;;;;;4.43;73.88;98886.27;1682339;84;27339;-72
2021/11/26 11:15:41;;;;;;;55.05;28.27;;;;;;;4.52;73.95;98878.86;1682280;84;25785;-72
2021/11/26 11:18:09;;;;;;;56.40;29.15;;;;;;;4.55;73.29;98875.58;1683127;84;25756;-73
2021/11/26 11:20:37;;;;;;;55.12;29.63;;;;;;;4.53;73.51;98869.18;1682578;84;26050;-73
2021/11/26 11:23:05;;;;;;;57.93;30.02;;;;;;;4.55;73.37;98856.83;1682626;84;25675;-73
2021/11/26 11:25:32;;;;;;;59.83;31.30;;;;;;;4.59;73.23;98860.47;1682707;84;27324;-74
2021/11/26 11:28:10;;;;;;;62.55;31.15;;;;;;;4.60;73.39;98856.16;1682652;84;25767;-73
2021/11/26 11:30:39;;;;;;;58.60;30.30;;;;;;;4.63;73.26;98846.70;1682645;84;25612;-72
2021/11/26 11:33:07;;;;;;;59.98;30.45;;;;;;;4.63;72.99;98846.17;1683007;84;28754;-73
2021/11/26 11:35:37;;;;;;;58.28;31.33;;;;;;;4.61;72.67;98837.63;1721130;82;26265;-72
2021/11/26 11:38:08;;;;;;;57.25;30.20;;;;;;;4.61;72.79;98839.53;1739226;82;27898;-72
2021/11/26 11:40:42;;;;;;;57.23;30.30;;;;;;;4.62;72.89;98831.75;1739220;82;25594;-72
2021/11/26 11:43:20;;;;;;;60.85;30.10;;;;;;;4.61;72.83;98820.22;1739242;81;25567;-72
2021/11/26 11:46:03;;;;;;;62.15;32.55;;;;;;;4.66;72.94;98820.66;1739392;82;26032;-72